Time;durP1;ratioP1;P1;durP2;ratioP2;P2;SDS_P1;SDS_P2;PMS_P1;PMS_P2;Temp;Humidity;BMP_temperature;BMP_pressure;BME280_temperature;BME280_humidity;BME280_pressure;Samples;Min_cycle;Max_cycle;Signal;HPM_P1;HPM_P2
2022/08/05 00:00:09;;;;;;;5.90;4.60;;;;;;;23.14;76.28;97839.53;5052879;28;20144;-75
2022/08/05 00:02:36;;;;;;;7.07;4.18;;;;;;;23.11;75.98;97835.50;5052948;28;20036;-74
2022/08/05 00:05:02;;;;;;;4.70;3.92;;;;;;;23.15;76.38;97839.13;5051658;28;20052;-75
2022/08/05 00:07:27;;;;;;;6.05;4.40;;;;;;;23.19;76.07;97839.97;5052795;28;20106;-74
2022/08/05 00:09:52;;;;;;;4.88;4.20;;;;;;;23.14;76.54;97829.16;5052625;28;20487;-74
2022/08/05 00:12:18;;;;;;;6.57;4.05;;;;;;;23.09;76.94;97837.84;5052715;28;20032;-75
2022/08/05 00:14:43;;;;;;;6.53;4.95;;;;;;;23.07;77.05;97843.03;5052604;28;20108;-75
2022/08/05 00:17:08;;;;;;;4.88;4.32;;;;;;;23.00;76.97;97836.53;5052598;28;20025;-74
2022/08/05 00:19:34;;;;;;;5.72;4.65;;;;;;;22.99;77.13;97837.75;5052629;28;20036;-74
2022/08/05 00:22:00;;;;;;;7.63;5.05;;;;;;;22.93;77.99;97837.25;5052544;28;20469;-74
2022/08/05 00:24:25;;;;;;;5.93;4.40;;;;;;;22.83;78.55;97837.94;5052394;28;20033;-75
2022/08/05 00:26:51;;;;;;;8.63;4.68;;;;;;;22.91;77.89;97831.25;5052355;28;20021;-75
2022/08/05 00:29:17;;;;;;;6.32;4.80;;;;;;;22.95;78.38;97832.13;5052493;28;20481;-74
2022/08/05 00:31:42;;;;;;;8.63;4.60;;;;;;;22.92;77.95;97832.88;5052271;28;20047;-74
2022/08/05 00:34:07;;;;;;;8.32;4.90;;;;;;;22.93;78.17;97831.66;5050748;28;20091;-75
2022/08/05 00:36:33;;;;;;;4.82;4.32;;;;;;;22.96;78.29;97832.94;5052170;28;20025;-75
2022/08/05 00:38:58;;;;;;;4.75;4.05;;;;;;;22.80;79.13;97836.72;5052079;28;20137;-74
2022/08/05 00:41:32;;;;;;;7.18;5.20;;;;;;;22.88;78.31;97832.00;5052643;28;20021;-75
2022/08/05 00:43:57;;;;;;;5.57;4.40;;;;;;;22.77;78.77;97820.72;5051970;28;20032;-74
2022/08/05 00:46:23;;;;;;;9.02;4.57;;;;;;;22.86;78.53;97815.66;5052007;28;20029;-74
2022/08/05 00:48:49;;;;;;;9.18;4.50;;;;;;;22.77;78.96;97823.50;5051861;28;20025;-75
2022/08/05 00:51:14;;;;;;;8.57;4.95;;;;;;;22.77;79.40;97820.72;5051870;28;20500;-74
2022/08/05 00:53:40;;;;;;;6.85;4.55;;;;;;;22.71;79.69;97815.88;5051906;28;20060;-74
2022/08/05 00:56:06;;;;;;;8.70;4.47;;;;;;;22.68;80.22;97813.84;5051610;28;20123;-75
2022/08/05 00:58:31;;;;;;;5.85;4.60;;;;;;;22.65;80.43;97818.16;5051975;28;20086;-75
2022/08/05 01:00:57;;;;;;;5.95;4.60;;;;;;;22.66;80.51;97814.19;5051767;28;20427;-75
2022/08/05 01:03:23;;;;;;;5.50;4.65;;;;;;;22.74;80.09;97812.31;5051675;28;20021;-74
2022/08/05 01:05:51;;;;;;;6.30;4.93;;;;;;;22.86;79.73;97809.28;5051581;28;20029;-74
2022/08/05 01:08:17;;;;;;;9.15;4.72;;;;;;;22.72;80.28;97806.28;5051679;28;20040;-74
2022/08/05 01:11:20;;;;;;;6.45;4.72;;;;;;;22.72;80.78;97811.88;5051414;28;20496;-74
2022/08/05 01:13:58;;;;;;;6.63;4.82;;;;;;;22.73;80.72;97805.94;5039930;28;20045;-75
2022/08/05 01:16:37;;;;;;;5.25;4.75;;;;;;;22.59;81.81;97807.69;5049959;28;20029;-74
2022/08/05 01:19:18;;;;;;;5.85;4.35;;;;;;;22.58;81.93;97811.66;5051297;28;20032;-75
2022/08/05 01:22:05;;;;;;;7.35;4.78;;;;;;;22.56;82.06;97812.03;5051508;28;20045;-74
2022/08/05 01:24:31;;;;;;;5.50;4.40;;;;;;;22.41;83.01;97807.44;5051443;28;20079;-75
2022/08/05 01:27:37;;;;;;;8.63;4.55;;;;;;;22.28;84.35;97803.25;5049774;28;20500;-74
2022/08/05 01:30:04;;;;;;;8.98;5.10;;;;;;;22.22;85.14;97801.97;5040501;28;20059;-75
2022/08/05 01:32:34;;;;;;;8.82;4.75;;;;;;;22.22;85.57;97802.78;5051145;28;20056;-74
2022/08/05 01:35:05;;;;;;;5.75;4.63;;;;;;;22.18;85.22;97804.69;5051027;28;20041;-74
2022/08/05 01:37:39;;;;;;;6.90;5.38;;;;;;;22.09;86.15;97806.97;5051261;28;20025;-74
2022/08/05 01:40:06;;;;;;;6.35;4.75;;;;;;;22.03;86.26;97814.03;5051259;28;20025;-75
2022/08/05 01:42:33;;;;;;;5.80;4.85;;;;;;;22.12;85.59;97803.41;5051127;28;20033;-74
2022/08/05 01:45:00;;;;;;;10.80;5.10;;;;;;;22.06;86.15;97802.13;5050768;28;20111;-74
2022/08/05 01:47:28;;;;;;;5.82;4.65;;;;;;;21.99;87.57;97802.00;5051069;28;20035;-75
2022/08/05 01:49:56;;;;;;;6.75;4.80;;;;;;;21.97;87.97;97803.56;5051099;28;20090;-74
2022/08/05 01:52:23;;;;;;;5.38;4.35;;;;;;;21.91;88.25;97800.31;5050869;28;20029;-75
2022/08/05 01:54:51;;;;;;;5.25;4.75;;;;;;;21.82;89.30;97797.75;5050799;28;20037;-74
2022/08/05 01:57:26;;;;;;;5.97;4.45;;;;;;;21.81;89.52;97798.09;5050879;28;20116;-75
2022/08/05 01:59:57;;;;;;;7.85;4.80;;;;;;;21.79;89.25;97792.94;5050870;28;20032;-75
2022/08/05 02:02:23;;;;;;;7.45;4.72;;;;;;;21.77;88.78;97794.47;5050845;28;20074;-75
2022/08/05 02:04:51;;;;;;;5.03;4.10;;;;;;;21.62;89.21;97787.84;5050694;28;20009;-74
2022/08/05 02:07:17;;;;;;;6.07;4.70;;;;;;;21.58;89.54;97789.75;5050680;28;20386;-75
2022/08/05 02:09:44;;;;;;;5.00;4.30;;;;;;;21.59;89.76;97794.16;5050908;28;20021;-75
2022/08/05 02:12:24;;;;;;;7.03;4.70;;;;;;;21.55;90.48;97793.28;5050740;28;20025;-75
2022/08/05 02:15:02;;;;;;;7.88;4.55;;;;;;;21.47;90.86;97788.78;5050660;28;20032;-75
2022/08/05 02:17:34;;;;;;;5.80;4.20;;;;;;;21.47;91.21;97794.34;5050502;28;20369;-75
2022/08/05 02:20:03;;;;;;;6.10;4.50;;;;;;;21.52;90.98;97793.25;5050622;28;20016;-75
2022/08/05 02:22:57;;;;;;;4.88;4.38;;;;;;;21.46;91.59;97789.16;5052105;28;20564;-74
2022/08/05 02:25:31;;;;;;;6.38;4.30;;;;;;;21.18;94.09;97783.84;5049632;28;20036;-75
2022/08/05 02:27:57;;;;;;;5.57;4.97;;;;;;;21.23;94.21;97797.50;5050428;28;20033;-74
2022/08/05 02:30:25;;;;;;;7.72;4.47;;;;;;;21.27;94.21;97804.72;5050538;28;20025;-74
2022/08/05 02:32:54;;;;;;;6.13;4.75;;;;;;;21.13;95.09;97798.06;5050653;28;20616;-74
2022/08/05 02:35:22;;;;;;;6.35;5.07;;;;;;;21.17;95.12;97794.22;5050148;28;20049;-74
2022/08/05 02:37:50;;;;;;;7.20;5.60;;;;;;;21.17;95.32;97796.19;5050342;28;20451;-74
2022/08/05 02:40:17;;;;;;;8.02;4.55;;;;;;;21.16;94.59;97792.59;5048960;28;20021;-74
2022/08/05 02:42:44;;;;;;;5.93;4.30;;;;;;;21.07;95.18;97794.78;5050324;28;20431;-74
2022/08/05 02:45:11;;;;;;;5.28;4.40;;;;;;;21.03;95.74;97788.31;5050711;28;20084;-75
2022/08/05 02:47:37;;;;;;;10.43;4.97;;;;;;;21.06;95.83;97797.91;5050721;28;20108;-74
2022/08/05 02:50:06;;;;;;;7.35;4.70;;;;;;;21.02;96.03;97785.91;5052013;28;20086;-75
2022/08/05 02:52:32;;;;;;;7.45;4.80;;;;;;;21.01;96.10;97787.91;5057093;28;20538;-75
2022/08/05 02:54:59;;;;;;;11.27;4.60;;;;;;;21.17;94.77;97783.06;5055390;28;20120;-75
2022/08/05 02:57:26;;;;;;;5.50;4.28;;;;;;;21.17;94.51;97782.28;5055255;28;20021;-74
2022/08/05 02:59:52;;;;;;;6.40;5.20;;;;;;;21.08;95.27;97793.56;5054245;28;20009;-74
2022/08/05 03:02:22;;;;;;;5.32;4.75;;;;;;;21.12;94.95;97783.34;5054166;28;20107;-74
2022/08/05 03:04:49;;;;;;;5.40;4.57;;;;;;;21.06;95.60;97782.03;5054440;28;20047;-74
2022/08/05 03:07:16;;;;;;;5.60;4.45;;;;;;;21.05;95.95;97774.06;5054072;28;20032;-74
2022/08/05 03:09:43;;;;;;;6.28;5.00;;;;;;;21.01;96.72;97787.91;5054130;28;20040;-74
2022/08/05 03:12:08;;;;;;;5.60;4.95;;;;;;;21.11;96.14;97784.53;5054236;28;20017;-75
2022/08/05 03:14:34;;;;;;;4.93;4.43;;;;;;;21.10;96.09;97790.47;5054116;28;20138;-75
2022/08/05 03:17:00;;;;;;;6.03;5.05;;;;;;;21.08;96.24;97778.88;5054074;28;20366;-75
2022/08/05 03:19:25;;;;;;;7.20;4.80;;;;;;;21.12;95.99;97769.44;5054105;28;20366;-74
2022/08/05 03:21:50;;;;;;;6.05;4.88;;;;;;;21.05;96.79;97766.50;5053828;28;20040;-75
2022/08/05 03:24:19;;;;;;;4.95;4.15;;;;;;;21.08;96.86;97778.88;5053988;28;20033;-74
2022/08/05 03:26:45;;;;;;;6.72;4.97;;;;;;;20.96;97.73;97782.63;5053945;28;20036;-74
2022/08/05 03:29:11;;;;;;;6.20;4.65;;;;;;;20.91;98.13;97779.34;5054012;28;20029;-75
2022/08/05 03:31:37;;;;;;;7.40;5.10;;;;;;;20.97;98.14;97784.22;5053821;28;20071;-74
2022/08/05 03:34:04;;;;;;;7.45;5.22;;;;;;;20.83;99.11;97778.41;5053739;28;20067;-75
2022/08/05 03:36:30;;;;;;;5.90;5.00;;;;;;;20.80;100.00;97779.09;5053359;28;20049;-74
2022/08/05 03:38:56;;;;;;;14.20;5.40;;;;;;;20.83;100.00;97783.97;5053601;28;20112;-74
2022/08/05 03:41:21;;;;;;;8.02;4.75;;;;;;;20.82;99.99;97779.56;5053545;28;20476;-75
2022/08/05 03:43:47;;;;;;;6.25;5.00;;;;;;;20.69;100.00;97776.13;5053497;28;20029;-74
2022/08/05 03:46:13;;;;;;;6.22;5.05;;;;;;;20.72;100.00;97785.69;5053619;28;20111;-74
2022/08/05 03:48:38;;;;;;;6.82;4.78;;;;;;;20.67;100.00;97777.66;5053359;28;20037;-75
2022/08/05 03:51:19;;;;;;;8.50;4.90;;;;;;;20.70;100.00;97777.75;5053348;28;20177;-74
2022/08/05 03:54:03;;;;;;;6.35;5.13;;;;;;;20.72;100.00;97777.38;5053439;28;20067;-74
2022/08/05 03:56:31;;;;;;;8.25;5.45;;;;;;;20.85;100.00;97784.38;5053199;28;20059;-75
2022/08/05 03:59:00;;;;;;;7.15;5.20;;;;;;;20.80;100.00;97782.69;5053307;28;20521;-74
2022/08/05 04:01:29;;;;;;;6.82;4.85;;;;;;;20.84;100.00;97785.56;5053087;28;20029;-74
2022/08/05 04:03:57;;;;;;;6.28;5.18;;;;;;;20.75;100.00;97769.09;5053054;28;20487;-74
2022/08/05 04:06:23;;;;;;;6.75;5.03;;;;;;;20.75;100.00;97779.41;5053080;28;20464;-74
2022/08/05 04:08:49;;;;;;;7.15;5.05;;;;;;;20.84;100.00;97782.78;5052755;28;20027;-74
2022/08/05 04:11:15;;;;;;;7.10;5.40;;;;;;;20.74;100.00;97786.13;5053086;28;20495;-74
2022/08/05 04:13:41;;;;;;;6.93;5.25;;;;;;;20.81;100.00;97775.16;5052864;28;20025;-74
2022/08/05 04:16:08;;;;;;;7.65;5.85;;;;;;;20.99;98.00;97787.44;5052649;28;20029;-74
2022/08/05 04:18:34;;;;;;;8.45;5.60;;;;;;;21.09;96.65;97797.19;5052938;28;20074;-74
2022/08/05 04:21:00;;;;;;;8.45;5.70;;;;;;;21.18;96.34;97792.19;5052849;28;20108;-74
2022/08/05 04:23:27;;;;;;;12.15;6.25;;;;;;;21.26;95.81;97797.56;5052799;28;20481;-75
2022/08/05 04:25:53;;;;;;;9.93;5.65;;;;;;;21.32;94.37;97796.06;5052670;28;20091;-74
2022/08/05 04:28:19;;;;;;;9.23;5.93;;;;;;;21.14;93.26;97792.16;5052684;28;20029;-74
2022/08/05 04:30:46;;;;;;;7.40;5.57;;;;;;;21.10;92.84;97794.06;5052638;28;20032;-74
2022/08/05 04:33:12;;;;;;;6.93;5.18;;;;;;;21.07;92.57;97793.97;5052551;28;20044;-74
2022/08/05 04:35:37;;;;;;;10.05;5.55;;;;;;;21.00;93.11;97789.06;5051061;28;20059;-74
2022/08/05 04:38:03;;;;;;;8.25;4.75;;;;;;;21.01;93.25;97796.25;5052462;28;20029;-75
2022/08/05 04:40:31;;;;;;;7.40;5.57;;;;;;;21.20;91.86;97781.53;5052450;28;20389;-74
2022/08/05 04:42:56;;;;;;;6.75;5.30;;;;;;;22.18;85.72;97799.13;5052295;28;20133;-74
2022/08/05 04:45:24;;;;;;;9.68;4.90;;;;;;;23.52;77.26;97807.66;5052289;28;20115;-74
2022/08/05 04:47:49;;;;;;;7.18;5.28;;;;;;;24.66;70.32;97804.56;5052420;28;20052;-74
2022/08/05 04:50:15;;;;;;;7.47;5.03;;;;;;;24.73;69.29;97807.41;5052101;28;20465;-76
2022/08/05 04:52:40;;;;;;;9.57;5.18;;;;;;;23.98;71.76;97801.31;5056652;28;20050;-75
2022/08/05 04:55:06;;;;;;;7.18;4.68;;;;;;;23.39;75.04;97807.94;5054875;28;20041;-74
2022/08/05 04:57:31;;;;;;;6.25;5.35;;;;;;;22.92;77.21;97799.41;5052077;28;20036;-75
2022/08/05 04:59:56;;;;;;;7.15;5.78;;;;;;;22.60;80.02;97800.94;5051930;28;20017;-74
2022/08/05 05:02:22;;;;;;;6.50;4.93;;;;;;;22.57;80.31;97810.06;5051927;28;20099;-74
2022/08/05 05:04:47;;;;;;;10.77;4.90;;;;;;;22.68;80.08;97797.09;5052131;28;20036;-74
2022/08/05 05:07:12;;;;;;;7.68;5.53;;;;;;;22.74;79.92;97812.31;5051807;28;20024;-74
2022/08/05 05:09:37;;;;;;;8.38;5.60;;;;;;;22.57;80.57;97805.28;5051883;28;20033;-75
2022/08/05 05:12:03;;;;;;;8.43;5.30;;;;;;;22.41;81.23;97807.44;5051910;28;20040;-75
2022/08/05 05:14:29;;;;;;;11.93;5.53;;;;;;;22.32;81.09;97804.94;5051699;28;20025;-74
2022/08/05 05:16:54;;;;;;;6.45;5.18;;;;;;;22.24;80.60;97802.44;5051547;28;20044;-74
2022/08/05 05:19:19;;;;;;;7.20;5.35;;;;;;;22.62;79.29;97804.94;5049636;28;20009;-74
2022/08/05 05:21:45;;;;;;;7.60;4.88;;;;;;;23.12;76.92;97803.59;5051877;28;20468;-74
2022/08/05 05:24:10;;;;;;;6.85;4.95;;;;;;;23.25;74.76;97807.75;5053403;28;20365;-75
2022/08/05 05:26:35;;;;;;;9.52;5.20;;;;;;;23.12;75.00;97814.75;5053406;28;20491;-74
2022/08/05 05:29:01;;;;;;;6.82;4.90;;;;;;;23.00;76.32;97803.88;5053119;28;20105;-74
2022/08/05 05:31:26;;;;;;;6.28;4.78;;;;;;;23.32;74.22;97807.84;5051650;28;20056;-74
2022/08/05 05:33:51;;;;;;;8.77;5.18;;;;;;;23.56;73.51;97808.47;5050090;28;20028;-74
2022/08/05 05:36:17;;;;;;;5.75;4.68;;;;;;;23.24;74.09;97802.56;5051152;28;20557;-74
2022/08/05 05:38:42;;;;;;;6.97;5.25;;;;;;;23.08;75.92;97813.13;5051512;28;20496;-75
2022/08/05 05:41:07;;;;;;;10.40;5.55;;;;;;;23.13;75.64;97798.81;5051196;28;20024;-74
2022/08/05 05:43:33;;;;;;;7.57;4.90;;;;;;;23.12;75.66;97803.59;5050941;28;20035;-75
2022/08/05 05:45:58;;;;;;;6.55;5.22;;;;;;;23.38;74.01;97802.69;5050775;28;20033;-75
2022/08/05 05:48:23;;;;;;;7.07;5.47;;;;;;;23.61;72.95;97799.78;5049559;28;20120;-74
2022/08/05 05:50:51;;;;;;;6.30;5.10;;;;;;;23.76;71.73;97801.50;5051145;28;20025;-74
2022/08/05 05:53:16;;;;;;;8.20;4.70;;;;;;;23.58;72.18;97803.34;5051025;28;20111;-74
2022/08/05 05:55:41;;;;;;;9.25;5.05;;;;;;;23.58;72.41;97800.53;5051043;28;20037;-75
2022/08/05 05:58:07;;;;;;;6.65;5.00;;;;;;;23.72;71.46;97804.25;5050726;28;20053;-74
2022/08/05 06:00:32;;;;;;;6.43;5.18;;;;;;;23.95;70.72;97801.28;5050791;28;20524;-75
2022/08/05 06:03:00;;;;;;;7.25;5.32;;;;;;;24.96;67.09;97805.97;5050532;28;20083;-74
2022/08/05 06:05:25;;;;;;;6.30;5.30;;;;;;;25.97;61.91;97797.38;5050371;28;20082;-75
2022/08/05 06:07:51;;;;;;;12.88;5.78;;;;;;;25.68;63.32;97809.78;5050761;28;20025;-74
2022/08/05 06:10:16;;;;;;;8.43;5.55;;;;;;;25.76;62.76;97808.59;5050621;28;20031;-75
2022/08/05 06:12:41;;;;;;;8.35;5.72;;;;;;;25.25;64.66;97804.03;5050243;28;20025;-74
2022/08/05 06:15:07;;;;;;;9.13;5.70;;;;;;;25.14;64.87;97803.22;5050173;28;20044;-74
2022/08/05 06:17:33;;;;;;;10.82;5.43;;;;;;;25.19;64.68;97800.03;5050345;28;20017;-74
2022/08/05 06:19:59;;;;;;;7.38;5.63;;;;;;;25.07;64.41;97800.38;5050150;28;20025;-75
2022/08/05 06:22:29;;;;;;;9.75;5.90;;;;;;;25.21;64.53;97806.06;5050538;28;20069;-75
2022/08/05 06:24:55;;;;;;;11.38;5.82;;;;;;;25.90;61.89;97803.00;5050255;28;20020;-73
2022/08/05 06:27:20;;;;;;;7.90;6.20;;;;;;;25.69;62.18;97797.34;5050220;28;20503;-74
2022/08/05 06:29:46;;;;;;;10.30;5.57;;;;;;;25.21;63.82;97800.44;5050214;28;20056;-74
2022/08/05 06:32:12;;;;;;;8.70;5.28;;;;;;;25.14;65.08;97802.41;5050025;28;20028;-74
2022/08/05 06:34:37;;;;;;;7.55;5.93;;;;;;;25.11;63.88;97806.00;5049911;28;20519;-74
2022/08/05 06:37:02;;;;;;;10.70;6.00;;;;;;;25.26;63.77;97797.25;5050065;28;20427;-74
2022/08/05 06:39:28;;;;;;;12.60;6.35;;;;;;;25.48;62.80;97798.09;5050118;28;20028;-74
2022/08/05 06:41:57;;;;;;;8.15;5.75;;;;;;;25.52;62.72;97799.75;5050114;28;20033;-74
2022/08/05 06:44:22;;;;;;;8.25;5.57;;;;;;;25.96;61.18;97804.19;5049959;28;20036;-74
2022/08/05 06:46:48;;;;;;;7.22;5.10;;;;;;;26.12;59.71;97789.78;5050060;28;20385;-74
2022/08/05 06:49:13;;;;;;;7.55;5.53;;;;;;;26.02;60.10;97797.78;5048588;28;20147;-75
2022/08/05 06:51:38;;;;;;;8.48;6.53;;;;;;;25.73;60.97;97786.97;5049746;28;20153;-74
2022/08/05 06:54:04;;;;;;;12.38;5.40;;;;;;;26.17;59.80;97790.19;5049972;28;20040;-75
2022/08/05 06:56:31;;;;;;;7.82;5.10;;;;;;;25.91;59.95;97798.97;5049784;28;20472;-75
2022/08/05 06:58:56;;;;;;;7.05;5.40;;;;;;;26.23;59.00;97797.00;5049973;28;20033;-75
2022/08/05 07:01:22;;;;;;;5.78;5.00;;;;;;;26.52;58.53;97803.38;5049951;28;20020;-75
2022/08/05 07:03:47;;;;;;;7.05;5.22;;;;;;;26.24;59.63;97798.63;5048463;28;20473;-74
2022/08/05 07:06:13;;;;;;;7.10;4.97;;;;;;;25.95;60.23;97796.97;5049772;28;20083;-74
2022/08/05 07:08:38;;;;;;;7.20;5.20;;;;;;;26.29;59.66;97794.59;5050076;28;20040;-74
2022/08/05 07:11:04;;;;;;;7.03;4.90;;;;;;;26.29;58.51;97798.19;5050641;28;20038;-75
2022/08/05 07:17:02;;;;;;;6.63;4.78;;;;;;;26.92;55.23;97799.28;5049638;28;20032;-74
2022/08/05 07:19:03;;;;;;;7.47;4.53;;;;;;;27.20;54.28;97793.53;5048995;28;20076;-75
2022/08/05 07:21:29;;;;;;;9.65;5.00;;;;;;;27.14;54.94;97800.78;5049665;28;20060;-74
2022/08/05 07:23:55;;;;;;;7.15;5.15;;;;;;;27.06;55.29;97791.59;5049557;28;20021;-74
2022/08/05 07:26:21;;;;;;;6.18;5.00;;;;;;;27.38;54.58;97782.22;5049337;28;20124;-73
2022/08/05 07:28:46;;;;;;;6.47;4.75;;;;;;;27.64;53.98;97787.28;5049199;28;20021;-75
2022/08/05 07:31:11;;;;;;;6.00;4.95;;;;;;;27.59;53.83;97785.72;5049496;28;20029;-75
2022/08/05 07:33:37;;;;;;;5.57;4.63;;;;;;;27.99;53.08;97789.03;5049369;28;20389;-75
2022/08/05 07:36:02;;;;;;;6.60;4.32;;;;;;;28.15;51.99;97781.69;5049204;28;20256;-74
2022/08/05 07:38:28;;;;;;;10.02;5.07;;;;;;;27.94;52.26;97783.84;5049345;28;20032;-75
2022/08/05 07:40:53;;;;;;;6.80;4.30;;;;;;;27.43;53.42;97771.34;5049558;28;20029;-74
2022/08/05 07:43:18;;;;;;;10.68;4.72;;;;;;;27.94;52.62;97775.41;5052120;28;20036;-75
2022/08/05 07:45:44;;;;;;;9.20;4.20;;;;;;;28.30;51.44;97781.53;5051606;28;20489;-74
2022/08/05 07:48:10;;;;;;;7.72;4.15;;;;;;;29.08;50.07;97787.13;5053175;28;20415;-75
2022/08/05 07:50:35;;;;;;;6.68;4.82;;;;;;;29.00;48.85;97780.78;5052838;28;20025;-74
2022/08/05 07:53:00;;;;;;;6.97;4.50;;;;;;;28.96;49.56;97779.22;5052813;28;20047;-75
2022/08/05 07:55:26;;;;;;;6.47;4.70;;;;;;;29.37;48.03;97785.56;5052812;28;20137;-75
2022/08/05 07:57:51;;;;;;;8.85;4.50;;;;;;;29.68;47.09;97789.13;5052748;28;20116;-75
2022/08/05 08:00:17;;;;;;;8.00;4.20;;;;;;;29.82;46.30;97783.31;5051232;28;20036;-75
2022/08/05 08:02:43;;;;;;;9.63;5.28;;;;;;;30.97;43.93;97783.69;5052143;28;20017;-76
2022/08/05 08:05:09;;;;;;;10.60;4.63;;;;;;;32.96;39.41;97786.16;5052119;28;20557;-75
2022/08/05 08:07:35;;;;;;;7.97;4.45;;;;;;;35.63;34.69;97797.53;5052005;28;20131;-75
2022/08/05 08:10:00;;;;;;;5.05;4.40;;;;;;;36.37;32.63;97798.16;5052170;28;20025;-75
2022/08/05 08:12:25;;;;;;;7.75;4.57;;;;;;;36.25;32.88;97784.81;5052104;28;20469;-75
2022/08/05 08:14:51;;;;;;;5.63;4.55;;;;;;;36.93;31.85;97788.44;5051998;28;20646;-75
2022/08/05 08:17:16;;;;;;;8.85;5.00;;;;;;;36.54;31.64;97786.50;5052189;28;20048;-75
2022/08/05 08:19:43;;;;;;;9.40;4.32;;;;;;;38.59;29.20;97806.22;5051889;28;20534;-75
2022/08/05 08:22:09;;;;;;;5.07;4.50;;;;;;;38.99;27.89;97792.25;5051519;28;20037;-75
2022/08/05 08:24:35;;;;;;;10.73;4.72;;;;;;;39.73;26.88;97795.19;5051711;28;20104;-75
2022/08/05 08:27:01;;;;;;;7.13;4.55;;;;;;;40.03;26.42;97791.03;5051899;28;20078;-75
2022/08/05 08:29:27;;;;;;;8.80;4.15;;;;;;;41.30;24.92;97780.50;5051766;28;20707;-75
2022/08/05 08:31:53;;;;;;;5.43;4.60;;;;;;;41.38;24.74;97787.41;5051419;28;20388;-74
2022/08/05 08:34:19;;;;;;;8.45;4.68;;;;;;;39.46;26.55;97777.03;5051609;28;20033;-74
2022/08/05 08:36:45;;;;;;;7.88;4.63;;;;;;;42.03;24.04;97776.22;5051230;28;20037;-76
2022/08/05 08:39:10;;;;;;;9.57;4.82;;;;;;;39.79;26.41;97771.09;5051752;28;20079;-75
2022/08/05 08:41:39;;;;;;;8.88;4.25;;;;;;;39.10;27.07;97766.69;5051789;28;20021;-76
2022/08/05 08:44:07;;;;;;;7.85;4.53;;;;;;;38.11;27.91;97768.19;5051564;28;20025;-74
2022/08/05 08:46:33;;;;;;;7.03;4.57;;;;;;;39.48;26.87;97756.47;5051614;28;20490;-74
2022/08/05 08:49:01;;;;;;;7.20;4.97;;;;;;;41.12;24.75;97763.59;5051124;28;20477;-74
2022/08/05 08:51:31;;;;;;;6.55;3.67;;;;;;;39.77;26.50;97765.06;5051416;28;20112;-74
2022/08/05 08:53:57;;;;;;;8.18;4.47;;;;;;;39.58;26.49;97760.81;5051509;28;20029;-76
2022/08/05 08:56:23;;;;;;;7.43;3.95;;;;;;;40.65;25.28;97756.22;5051132;28;20033;-75
2022/08/05 08:58:49;;;;;;;9.20;4.30;;;;;;;41.10;24.57;97761.22;5051201;28;20044;-76
2022/08/05 09:01:15;;;;;;;8.50;4.50;;;;;;;37.87;28.20;97750.97;5051271;28;20017;-75
2022/08/05 09:03:42;;;;;;;7.32;4.53;;;;;;;36.17;31.16;97745.69;5051200;28;20029;-75
2022/08/05 09:06:07;;;;;;;11.40;4.35;;;;;;;35.19;32.68;97728.47;5051147;28;20044;-76
2022/08/05 09:08:33;;;;;;;12.57;5.30;;;;;;;34.49;33.96;97741.16;5051250;28;20009;-76
2022/08/05 09:10:58;;;;;;;8.13;4.55;;;;;;;34.54;34.39;97729.22;5051228;28;20057;-74
2022/08/05 09:13:24;;;;;;;6.70;4.38;;;;;;;34.53;34.33;97721.13;5051066;28;20053;-76
2022/08/05 09:15:50;;;;;;;6.10;4.13;;;;;;;33.74;36.06;97717.31;5051065;28;20033;-76
2022/08/05 09:18:16;;;;;;;7.30;4.70;;;;;;;32.99;37.97;97720.03;5050885;28;20066;-76
2022/08/05 09:20:44;;;;;;;5.07;4.25;;;;;;;33.10;37.28;97714.91;5051049;28;20033;-75
2022/08/05 09:23:16;;;;;;;6.32;4.10;;;;;;;33.27;36.78;97710.72;5051079;28;20021;-75
2022/08/05 09:25:44;;;;;;;6.60;4.45;;;;;;;33.28;36.81;97712.31;5050868;28;20028;-76
2022/08/05 09:28:15;;;;;;;7.43;4.38;;;;;;;33.74;36.66;97708.81;5050916;28;20106;-73
2022/08/05 09:30:51;;;;;;;8.13;4.28;;;;;;;33.81;35.81;97705.75;5050797;28;20021;-76
2022/08/05 09:33:17;;;;;;;6.07;3.65;;;;;;;33.87;36.05;97703.91;5050698;28;20104;-76
2022/08/05 09:35:54;;;;;;;5.05;4.40;;;;;;;33.66;36.41;97698.94;5050606;28;20045;-76
2022/08/05 09:38:20;;;;;;;4.35;3.80;;;;;;;33.73;35.95;97695.88;5049380;28;20025;-75
2022/08/05 09:40:45;;;;;;;4.40;3.88;;;;;;;34.19;35.02;97685.00;5050745;28;20185;-76
2022/08/05 09:43:29;;;;;;;6.80;4.03;;;;;;;34.33;34.57;97690.22;5050482;28;20064;-76
2022/08/05 09:45:55;;;;;;;6.03;4.20;;;;;;;33.83;35.55;97676.91;5050582;28;20033;-76
2022/08/05 09:48:28;;;;;;;4.70;3.58;;;;;;;34.68;33.80;97677.56;5049097;28;20083;-76
2022/08/05 09:50:59;;;;;;;5.07;3.97;;;;;;;34.55;34.02;97673.19;5050534;28;20476;-76
2022/08/05 09:53:25;;;;;;;4.75;3.50;;;;;;;34.89;33.45;97673.13;5050523;28;20497;-76
2022/08/05 09:55:55;;;;;;;4.22;3.70;;;;;;;34.86;33.43;97672.00;5050270;28;20028;-76
2022/08/05 09:58:21;;;;;;;10.00;3.85;;;;;;;34.69;33.24;97670.63;5050458;28;20043;-75
2022/08/05 10:00:59;;;;;;;5.05;4.18;;;;;;;34.41;33.68;97669.59;5050470;28;20017;-76
2022/08/05 10:03:24;;;;;;;6.93;4.20;;;;;;;35.10;32.55;97660.94;5050242;28;20033;-76
2022/08/05 10:06:04;;;;;;;9.68;3.75;;;;;;;34.85;32.50;97664.72;5049623;28;20086;-76
2022/08/05 10:08:30;;;;;;;13.63;3.50;;;;;;;34.99;32.30;97654.06;5048647;28;20542;-76
2022/08/05 10:10:57;;;;;;;4.00;3.60;;;;;;;35.08;32.80;97654.09;5050134;28;20037;-76
2022/08/05 10:13:49;;;;;;;5.25;3.92;;;;;;;35.28;32.38;97658.19;5049991;28;20040;-76
2022/08/05 10:16:34;;;;;;;4.47;3.78;;;;;;;35.30;30.85;97658.53;5048971;28;20080;-75
2022/08/05 10:19:00;;;;;;;4.30;3.63;;;;;;;35.43;31.20;97650.66;5050111;28;20032;-76
2022/08/05 10:21:26;;;;;;;6.07;3.90;;;;;;;35.79;31.03;97646.34;5050131;28;20104;-75
2022/08/05 10:23:53;;;;;;;4.07;3.67;;;;;;;35.95;30.68;97638.31;5050038;28;20039;-76
2022/08/05 10:26:19;;;;;;;5.88;3.50;;;;;;;35.97;31.40;97646.38;5049920;28;20029;-76
2022/08/05 10:28:46;;;;;;;7.50;3.63;;;;;;;36.15;31.50;97648.50;5049986;28;20421;-74
2022/08/05 10:31:13;;;;;;;4.18;3.70;;;;;;;35.69;31.27;97637.00;5049845;28;20025;-75
2022/08/05 10:33:39;;;;;;;7.68;3.20;;;;;;;35.83;31.15;97635.63;5050021;28;20503;-75
2022/08/05 10:36:05;;;;;;;4.18;3.40;;;;;;;36.13;31.11;97628.22;5049619;28;20053;-77
2022/08/05 10:38:32;;;;;;;4.55;3.50;;;;;;;36.03;31.02;97632.28;5049839;28;20039;-75
2022/08/05 10:41:10;;;;;;;3.70;3.17;;;;;;;36.44;30.47;97635.34;5049713;28;20435;-75
2022/08/05 10:43:47;;;;;;;5.72;3.28;;;;;;;36.32;30.80;97633.47;5049871;28;20033;-75
2022/08/05 10:46:16;;;;;;;7.32;3.88;;;;;;;35.29;31.59;97630.53;5050002;28;20542;-76
2022/08/05 10:48:44;;;;;;;4.82;3.78;;;;;;;35.84;30.78;97622.94;5048569;28;20082;-75
2022/08/05 10:51:14;;;;;;;4.10;3.60;;;;;;;35.66;30.36;97623.72;5050133;28;20582;-75
2022/08/05 10:53:43;;;;;;;5.20;3.35;;;;;;;35.12;30.96;97612.91;5050157;28;20120;-75
2022/08/05 10:56:09;;;;;;;4.78;3.90;;;;;;;35.28;31.32;97617.53;5049720;28;20146;-76
2022/08/05 10:58:45;;;;;;;6.70;3.60;;;;;;;35.55;30.91;97608.31;5048561;28;20052;-75
2022/08/05 11:01:11;;;;;;;5.80;3.65;;;;;;;35.90;30.54;97610.44;5049249;28;20377;-76
2022/08/05 11:03:59;;;;;;;4.47;3.33;;;;;;;36.39;30.16;97612.41;5049533;28;20606;-75
2022/08/05 11:06:25;;;;;;;8.15;3.53;;;;;;;36.25;29.77;97610.16;5049455;28;20488;-75
2022/08/05 11:09:16;;;;;;;7.35;3.30;;;;;;;35.51;30.12;97599.91;5049583;28;20448;-75
2022/08/05 11:11:42;;;;;;;4.38;3.50;;;;;;;35.92;30.22;97605.09;5049692;28;20029;-76
2022/08/05 11:14:11;;;;;;;5.55;3.75;;;;;;;36.31;29.35;97602.56;5049603;28;20096;-75
2022/08/05 11:16:36;;;;;;;8.27;3.80;;;;;;;36.58;29.42;97602.59;5049154;28;20048;-75
2022/08/05 11:19:27;;;;;;;3.65;3.25;;;;;;;36.74;29.08;97592.88;5053232;28;20025;-75
2022/08/05 11:22:16;;;;;;;4.00;3.60;;;;;;;36.85;29.45;97590.31;5051856;28;20029;-76
2022/08/05 11:24:45;;;;;;;4.68;3.83;;;;;;;36.61;29.82;97597.97;5053372;28;20056;-76
2022/08/05 11:27:30;;;;;;;4.43;3.97;;;;;;;36.12;30.17;97586.78;5053465;28;20033;-76
2022/08/05 11:29:59;;;;;;;8.15;4.03;;;;;;;36.31;30.09;97596.88;5053233;28;20362;-75
2022/08/05 11:32:27;;;;;;;4.65;3.78;;;;;;;36.07;30.38;97590.25;5053364;28;20029;-76
2022/08/05 11:34:53;;;;;;;4.40;3.72;;;;;;;36.23;30.30;97595.63;5052859;28;20091;-76
2022/08/05 11:37:40;;;;;;;4.15;3.40;;;;;;;36.19;29.76;97595.78;5053019;28;20466;-76